createdAt,value
2022-09-12T00:01:49.936Z,100.00
2022-09-12T00:04:16.663Z,100.00
2022-09-12T00:06:43.388Z,100.00
2022-09-12T00:09:13.822Z,100.00
2022-09-12T00:11:43.481Z,100.00
2022-09-12T00:14:12.787Z,100.00
2022-09-12T00:16:40.421Z,100.00
2022-09-12T00:19:08.198Z,100.00
2022-09-12T00:21:36.922Z,100.00
2022-09-12T00:24:04.123Z,100.00
2022-09-12T00:26:30.955Z,100.00
2022-09-12T00:28:57.638Z,100.00
2022-09-12T00:31:25.915Z,100.00
2022-09-12T00:33:55.025Z,100.00
2022-09-12T00:36:24.798Z,100.00
2022-09-12T00:38:52.247Z,100.00
2022-09-12T00:41:37.717Z,100.00
2022-09-12T00:44:10.498Z,100.00
2022-09-12T00:46:53.432Z,100.00
2022-09-12T00:49:34.706Z,100.00
2022-09-12T00:52:27.984Z,100.00
2022-09-12T00:55:26.557Z,100.00
2022-09-12T00:58:02.842Z,100.00
2022-09-12T01:00:30.111Z,100.00
2022-09-12T01:03:09.948Z,100.00
2022-09-12T01:05:41.180Z,100.00
2022-09-12T01:08:08.103Z,100.00
2022-09-12T01:10:37.492Z,100.00
2022-09-12T01:13:07.154Z,100.00
2022-09-12T01:15:35.075Z,100.00
2022-09-12T01:18:13.531Z,100.00
2022-09-12T01:20:43.265Z,100.00
2022-09-12T01:23:25.047Z,100.00
2022-09-12T01:26:09.853Z,100.00
2022-09-12T01:29:03.494Z,100.00
2022-09-12T01:31:36.195Z,100.00
2022-09-12T01:34:02.751Z,100.00
2022-09-12T01:36:35.085Z,100.00
2022-09-12T01:39:09.713Z,100.00
2022-09-12T01:41:54.896Z,100.00
2022-09-12T01:44:48.044Z,100.00
2022-09-12T01:47:39.367Z,100.00
2022-09-12T01:50:18.936Z,100.00
2022-09-12T01:52:56.094Z,100.00
2022-09-12T01:55:31.894Z,100.00
2022-09-12T01:58:19.687Z,100.00
2022-09-12T02:00:55.615Z,100.00
2022-09-12T02:03:31.079Z,100.00
2022-09-12T02:06:08.245Z,100.00
2022-09-12T02:08:47.610Z,100.00
2022-09-12T02:11:14.486Z,100.00
2022-09-12T02:13:47.852Z,100.00
2022-09-12T02:16:18.279Z,100.00
2022-09-12T02:18:50.697Z,100.00
2022-09-12T02:21:20.335Z,100.00
2022-09-12T02:23:52.554Z,100.00
2022-09-12T02:26:34.282Z,100.00
2022-09-12T02:29:01.702Z,100.00
2022-09-12T02:31:44.889Z,100.00
2022-09-12T02:34:23.407Z,100.00
2022-09-12T02:37:03.026Z,100.00
2022-09-12T02:39:29.726Z,100.00
2022-09-12T02:41:59.629Z,100.00
2022-09-12T02:44:28.406Z,100.00
2022-09-12T02:47:07.187Z,100.00
2022-09-12T02:49:33.990Z,100.00
2022-09-12T02:52:02.190Z,100.00
2022-09-12T02:54:30.460Z,100.00
2022-09-12T02:56:57.125Z,100.00
2022-09-12T02:59:25.052Z,100.00
2022-09-12T03:02:15.859Z,100.00
2022-09-12T03:04:54.992Z,100.00
2022-09-12T03:07:59.075Z,100.00
2022-09-12T03:10:34.703Z,100.00
2022-09-12T03:13:13.376Z,100.00
2022-09-12T03:15:52.143Z,100.00
2022-09-12T03:18:24.488Z,100.00
2022-09-12T03:20:57.638Z,100.00
2022-09-12T03:23:49.669Z,100.00
2022-09-12T03:26:31.479Z,100.00
2022-09-12T03:28:59.474Z,100.00
2022-09-12T03:31:26.138Z,100.00
2022-09-12T03:33:52.723Z,100.00
2022-09-12T03:36:28.541Z,100.00
2022-09-12T03:38:55.323Z,100.00
2022-09-12T03:41:22.679Z,100.00
2022-09-12T03:43:49.304Z,100.00
2022-09-12T03:46:16.022Z,100.00
2022-09-12T03:48:42.745Z,100.00
2022-09-12T03:51:28.053Z,100.00
2022-09-12T03:53:54.826Z,100.00
2022-09-12T03:56:21.677Z,100.00
2022-09-12T03:58:48.293Z,100.00
2022-09-12T04:01:17.519Z,100.00
2022-09-12T04:03:46.601Z,100.00
2022-09-12T04:06:16.197Z,100.00
2022-09-12T04:08:44.099Z,100.00
2022-09-12T04:11:15.409Z,100.00
2022-09-12T04:13:43.922Z,100.00
2022-09-12T04:16:12.899Z,100.00
2022-09-12T04:18:40.138Z,100.00
2022-09-12T04:21:09.830Z,100.00
2022-09-12T04:23:36.864Z,100.00
2022-09-12T04:26:06.528Z,100.00
2022-09-12T04:28:34.740Z,100.00
2022-09-12T04:31:04.149Z,100.00
2022-09-12T04:33:30.871Z,100.00
2022-09-12T04:36:02.540Z,100.00
2022-09-12T04:38:29.111Z,100.00
2022-09-12T04:40:57.500Z,100.00
2022-09-12T04:43:24.291Z,91.79
2022-09-12T04:45:51.375Z,84.12
2022-09-12T04:48:18.299Z,76.56
2022-09-12T04:50:44.978Z,72.89
2022-09-12T04:53:11.753Z,70.51
2022-09-12T04:55:38.312Z,67.52
2022-09-12T04:58:05.023Z,65.06
2022-09-12T05:00:31.633Z,61.20
2022-09-12T05:02:58.373Z,57.42
2022-09-12T05:05:25.313Z,56.30
2022-09-12T05:07:52.007Z,50.72
2022-09-12T05:10:18.643Z,51.75
2022-09-12T05:12:45.507Z,48.46
2022-09-12T05:15:12.080Z,46.07
2022-09-12T05:17:38.672Z,44.98
2022-09-12T05:20:05.661Z,44.68
2022-09-12T05:22:32.361Z,42.40
2022-09-12T05:24:58.947Z,42.45
2022-09-12T05:27:25.568Z,40.91
2022-09-12T05:29:52.195Z,43.65
2022-09-12T05:32:18.796Z,43.29
2022-09-12T05:34:45.499Z,46.56
2022-09-12T05:37:12.695Z,49.96
2022-09-12T05:39:39.458Z,49.42
2022-09-12T05:42:06.333Z,45.60
2022-09-12T05:44:33.494Z,41.33
2022-09-12T05:47:00.196Z,40.96
2022-09-12T05:49:26.833Z,40.49
2022-09-12T05:51:53.408Z,38.94
2022-09-12T05:54:20.767Z,38.23
2022-09-12T05:56:48.214Z,37.24
2022-09-12T05:59:20.640Z,39.30
2022-09-12T06:01:48.578Z,38.38
2022-09-12T06:04:15.851Z,38.29
2022-09-12T06:06:47.171Z,37.66
2022-09-12T06:09:15.804Z,40.09
2022-09-12T06:11:43.792Z,44.17
2022-09-12T06:14:12.767Z,50.14
2022-09-12T06:16:40.330Z,49.13
2022-09-12T06:19:13.292Z,50.47
2022-09-12T06:21:40.151Z,52.80
2022-09-12T06:24:07.658Z,55.09
2022-09-12T06:26:34.731Z,60.30
2022-09-12T06:29:01.874Z,55.69
2022-09-12T06:31:33.985Z,51.08
2022-09-12T06:34:04.099Z,48.13
2022-09-12T06:36:33.950Z,50.69
2022-09-12T06:39:04.590Z,50.19
2022-09-12T06:41:32.613Z,46.54
2022-09-12T06:44:00.396Z,48.10
2022-09-12T06:46:28.098Z,51.78
2022-09-12T06:49:00.120Z,59.08
2022-09-12T06:51:28.113Z,60.81
2022-09-12T06:53:56.988Z,63.41
2022-09-12T06:56:26.759Z,61.15
2022-09-12T06:58:55.623Z,55.91
2022-09-12T07:01:31.286Z,51.21
2022-09-12T07:04:00.214Z,48.29
2022-09-12T07:06:32.289Z,45.11
2022-09-12T07:09:01.300Z,43.34
2022-09-12T07:11:33.628Z,42.84
2022-09-12T07:14:02.237Z,41.28
2022-09-12T07:16:30.394Z,43.18
2022-09-12T07:19:02.499Z,45.18
2022-09-12T07:21:30.501Z,48.84
2022-09-12T07:23:58.175Z,46.39
2022-09-12T07:26:27.356Z,46.27
2022-09-12T07:29:03.940Z,48.33
2022-09-12T07:31:43.131Z,45.65
2022-09-12T07:34:10.063Z,42.90
2022-09-12T07:36:37.289Z,40.33
2022-09-12T07:39:04.170Z,41.27
2022-09-12T07:41:34.083Z,41.57
2022-09-12T07:44:02.412Z,42.86
2022-09-12T07:46:30.581Z,45.26
2022-09-12T07:48:59.338Z,46.85
2022-09-12T07:51:27.771Z,45.61
2022-09-12T07:53:56.435Z,42.99
2022-09-12T07:56:29.385Z,46.34
2022-09-12T07:58:57.006Z,47.40
2022-09-12T08:01:24.147Z,48.23
2022-09-12T08:03:54.948Z,47.42
2022-09-12T08:06:26.775Z,45.83
2022-09-12T08:08:55.546Z,43.79
2022-09-12T08:11:23.190Z,43.84
2022-09-12T08:13:55.394Z,45.67
2022-09-12T08:16:25.120Z,45.49
2022-09-12T08:18:52.024Z,49.41
2022-09-12T08:21:24.160Z,47.68
2022-09-12T08:23:59.266Z,45.21
2022-09-12T08:26:26.097Z,43.59
2022-09-12T08:28:53.688Z,41.25
2022-09-12T08:31:22.137Z,39.84
2022-09-12T08:33:49.277Z,39.66
2022-09-12T08:36:24.431Z,39.22
2022-09-12T08:38:59.871Z,37.76
2022-09-12T08:41:34.966Z,36.26
2022-09-12T08:44:24.932Z,36.32
2022-09-12T08:47:03.829Z,36.18
2022-09-12T08:49:36.423Z,37.41
2022-09-12T08:52:11.751Z,37.54
2022-09-12T08:54:39.929Z,36.61
2022-09-12T08:57:10.070Z,37.62
2022-09-12T08:59:45.130Z,40.83
2022-09-12T09:02:30.688Z,40.73
2022-09-12T09:05:39.525Z,39.53
2022-09-12T09:08:22.053Z,38.80
2022-09-12T09:10:53.179Z,38.39
2022-09-12T09:14:05.468Z,39.93
2022-09-12T09:16:36.790Z,39.79
2022-09-12T09:19:11.398Z,41.71
2022-09-12T09:21:46.983Z,41.44
2022-09-12T09:24:19.458Z,42.82
2022-09-12T09:27:01.589Z,41.40
2022-09-12T09:29:35.893Z,41.82
2022-09-12T09:32:09.954Z,41.17
2022-09-12T09:34:39.203Z,41.75
2022-09-12T09:37:08.757Z,41.45
2022-09-12T09:39:56.903Z,41.03
2022-09-12T09:43:05.200Z,43.49
2022-09-12T09:45:31.947Z,44.70
2022-09-12T09:48:06.269Z,41.69
2022-09-12T09:50:32.973Z,42.25
2022-09-12T09:53:02.286Z,40.90
2022-09-12T09:55:38.334Z,42.81
2022-09-12T09:58:04.986Z,43.29
2022-09-12T10:00:36.825Z,42.77
2022-09-12T10:03:08.274Z,43.04
2022-09-12T10:05:48.955Z,42.23
2022-09-12T10:08:35.352Z,42.24
2022-09-12T10:11:18.785Z,43.39
2022-09-12T10:13:54.661Z,42.80
2022-09-12T10:16:22.275Z,42.05
2022-09-12T10:18:53.470Z,42.87
2022-09-12T10:21:23.592Z,43.34
2022-09-12T10:24:03.772Z,43.04
2022-09-12T10:26:40.434Z,40.29
2022-09-12T10:29:15.261Z,40.76
2022-09-12T10:31:47.520Z,41.45
2022-09-12T10:34:46.221Z,40.80
2022-09-12T10:37:23.504Z,41.13
2022-09-12T10:39:57.200Z,39.68
2022-09-12T10:42:47.173Z,39.69
2022-09-12T10:45:22.172Z,39.00
2022-09-12T10:47:49.567Z,39.71
2022-09-12T10:50:32.410Z,40.84
2022-09-12T10:53:24.314Z,41.08
2022-09-12T10:56:06.894Z,42.39
2022-09-12T10:58:58.492Z,42.61
2022-09-12T11:01:40.707Z,42.80
2022-09-12T11:04:29.220Z,43.34
2022-09-12T11:07:01.894Z,42.56
2022-09-12T11:09:54.774Z,43.44
2022-09-12T11:12:52.262Z,43.47
2022-09-12T11:15:25.433Z,41.85
2022-09-12T11:18:10.174Z,41.31
2022-09-12T11:21:05.315Z,41.21
2022-09-12T11:23:44.097Z,41.12
2022-09-12T11:26:40.932Z,40.88
2022-09-12T11:29:38.749Z,41.26
2022-09-12T11:32:11.087Z,41.10
2022-09-12T11:34:56.337Z,41.67
2022-09-12T11:37:41.372Z,42.72
2022-09-12T11:40:30.847Z,43.11
2022-09-12T11:43:32.375Z,43.74
2022-09-12T11:46:10.334Z,43.97
2022-09-12T11:48:56.694Z,43.43
2022-09-12T11:51:52.732Z,45.57
2022-09-12T11:54:36.202Z,45.10
2022-09-12T11:57:18.592Z,44.63
2022-09-12T11:59:52.866Z,45.27
2022-09-12T12:02:32.867Z,43.30
2022-09-12T12:05:22.023Z,44.22
2022-09-12T12:07:54.940Z,43.39
2022-09-12T12:10:26.436Z,42.84
2022-09-12T12:12:56.078Z,42.22
2022-09-12T12:15:25.494Z,42.66
2022-09-12T12:18:29.411Z,42.67
2022-09-12T12:20:59.626Z,41.16
2022-09-12T12:23:31.715Z,41.30
2022-09-12T12:26:00.969Z,43.34
2022-09-12T12:28:42.807Z,43.66
2022-09-12T12:31:11.396Z,44.33
2022-09-12T12:33:38.047Z,45.63
2022-09-12T12:36:08.722Z,46.45
2022-09-12T12:38:40.507Z,47.35
2022-09-12T12:41:19.672Z,46.25
2022-09-12T12:43:51.602Z,46.42
2022-09-12T12:46:24.156Z,44.51
2022-09-12T12:49:09.587Z,45.95
2022-09-12T12:51:49.799Z,47.28
2022-09-12T12:54:34.855Z,48.29
2022-09-12T12:57:15.369Z,48.00
2022-09-12T12:59:52.760Z,48.68
2022-09-12T13:02:37.085Z,49.46
2022-09-12T13:05:08.002Z,52.28
2022-09-12T13:07:40.282Z,52.38
2022-09-12T13:10:08.206Z,52.27
2022-09-12T13:12:44.031Z,51.16
2022-09-12T13:15:48.295Z,51.16
2022-09-12T13:18:21.917Z,52.79
2022-09-12T13:20:59.861Z,52.49
2022-09-12T13:23:29.956Z,51.44
2022-09-12T13:25:59.099Z,51.06
2022-09-12T13:28:27.139Z,48.81
2022-09-12T13:30:57.024Z,45.79
2022-09-12T13:33:51.071Z,45.91
2022-09-12T13:36:40.946Z,49.03
2022-09-12T13:39:28.953Z,49.92
2022-09-12T13:42:13.825Z,49.66
2022-09-12T13:44:48.287Z,49.78
2022-09-12T13:47:28.319Z,49.18
2022-09-12T13:49:56.226Z,50.30
2022-09-12T13:52:26.363Z,48.58
2022-09-12T13:54:56.539Z,49.06
2022-09-12T13:57:38.365Z,48.50
2022-09-12T14:00:13.555Z,47.86
2022-09-12T14:02:40.791Z,47.05
2022-09-12T14:05:22.581Z,46.87
2022-09-12T14:07:55.315Z,47.19
2022-09-12T14:10:35.501Z,47.16
2022-09-12T14:13:05.594Z,47.90
2022-09-12T14:15:36.341Z,47.13
2022-09-12T14:18:05.418Z,47.63
2022-09-12T14:20:37.032Z,47.03
2022-09-12T14:23:15.144Z,48.88
2022-09-12T14:25:47.723Z,48.56
2022-09-12T14:28:23.649Z,50.49
2022-09-12T14:31:05.939Z,50.60
2022-09-12T14:33:46.929Z,51.34
2022-09-12T14:36:22.297Z,51.32
2022-09-12T14:38:53.046Z,51.09
2022-09-12T14:41:27.876Z,50.90
2022-09-12T14:43:58.397Z,51.01
2022-09-12T14:46:31.934Z,50.39
2022-09-12T14:49:29.111Z,50.00
2022-09-12T14:51:58.365Z,50.03
2022-09-12T14:54:27.721Z,50.87
2022-09-12T14:56:59.572Z,51.50
2022-09-12T14:59:35.241Z,51.72
2022-09-12T15:02:14.120Z,52.24
2022-09-12T15:04:43.257Z,52.15
2022-09-12T15:07:47.928Z,52.60
2022-09-12T15:10:14.512Z,53.80
2022-09-12T15:12:41.092Z,54.28
2022-09-12T15:15:15.555Z,55.29
2022-09-12T15:17:42.423Z,55.29
2022-09-12T15:20:11.772Z,56.84
2022-09-12T15:22:39.478Z,57.09
2022-09-12T15:25:06.985Z,57.14
2022-09-12T15:27:33.624Z,57.29
2022-09-12T15:30:00.552Z,57.28
2022-09-12T15:32:30.227Z,57.89
2022-09-12T15:34:56.952Z,58.30
2022-09-12T15:37:24.523Z,58.45
2022-09-12T15:39:51.962Z,56.38
2022-09-12T15:42:27.860Z,57.90
2022-09-12T15:44:54.570Z,58.00
2022-09-12T15:47:25.143Z,59.15
2022-09-12T15:49:51.843Z,58.64
2022-09-12T15:52:18.536Z,58.05
2022-09-12T15:54:45.182Z,58.98
2022-09-12T15:57:12.315Z,59.83
2022-09-12T15:59:38.939Z,60.38
2022-09-12T16:02:05.991Z,60.48
2022-09-12T16:04:33.227Z,61.03
2022-09-12T16:06:59.848Z,61.36
2022-09-12T16:09:26.406Z,61.06
2022-09-12T16:11:53.161Z,61.66
2022-09-12T16:14:20.559Z,61.63
2022-09-12T16:16:59.116Z,61.51
2022-09-12T16:19:26.195Z,60.95
2022-09-12T16:21:52.926Z,60.45
2022-09-12T16:24:19.782Z,61.09
2022-09-12T16:26:46.439Z,60.79
2022-09-12T16:29:13.729Z,61.70
2022-09-12T16:31:40.730Z,61.72
2022-09-12T16:34:07.553Z,62.00
2022-09-12T16:36:34.616Z,62.31
2022-09-12T16:39:01.321Z,63.12
2022-09-12T16:41:27.946Z,63.06
2022-09-12T16:43:55.773Z,63.33
2022-09-12T16:46:26.077Z,63.58
2022-09-12T16:48:55.101Z,63.81
2022-09-12T16:51:28.003Z,63.58
2022-09-12T16:53:55.528Z,63.70
2022-09-12T16:56:23.210Z,64.32
2022-09-12T16:58:50.359Z,64.06
2022-09-12T17:01:20.104Z,64.24
2022-09-12T17:03:47.252Z,64.49
2022-09-12T17:06:16.757Z,64.79
2022-09-12T17:08:46.579Z,65.35
2022-09-12T17:11:15.862Z,65.50
2022-09-12T17:14:04.044Z,65.32
2022-09-12T17:16:33.835Z,65.44
2022-09-12T17:19:00.897Z,65.16
2022-09-12T17:21:28.075Z,64.64
2022-09-12T17:23:55.025Z,64.68
2022-09-12T17:26:22.066Z,65.01
2022-09-12T17:28:48.752Z,63.69
2022-09-12T17:31:15.893Z,63.75
2022-09-12T17:33:43.387Z,63.76
2022-09-12T17:36:15.034Z,63.60
2022-09-12T17:38:43.054Z,63.59
2022-09-12T17:41:18.152Z,63.94
2022-09-12T17:43:46.489Z,64.30
2022-09-12T17:46:14.452Z,63.87
2022-09-12T17:48:41.787Z,63.81
2022-09-12T17:51:13.980Z,64.41
2022-09-12T17:53:42.168Z,64.81
2022-09-12T17:56:10.735Z,65.25
2022-09-12T17:58:38.119Z,66.05
2022-09-12T18:01:32.651Z,66.39
2022-09-12T18:04:01.052Z,66.93
2022-09-12T18:06:28.503Z,67.54
2022-09-12T18:08:55.910Z,67.56
2022-09-12T18:11:22.555Z,67.86
2022-09-12T18:13:49.364Z,68.52
2022-09-12T18:16:16.620Z,68.90
2022-09-12T18:18:43.311Z,69.05
2022-09-12T18:21:12.167Z,69.28
2022-09-12T18:23:39.311Z,69.52
2022-09-12T18:26:08.441Z,70.02
2022-09-12T18:28:37.937Z,70.21
2022-09-12T18:31:09.777Z,70.27
2022-09-12T18:33:36.882Z,70.03
2022-09-12T18:36:08.469Z,70.25
2022-09-12T18:38:35.307Z,70.62
2022-09-12T18:41:19.944Z,69.78
2022-09-12T18:43:47.025Z,70.01
2022-09-12T18:46:16.695Z,70.08
2022-09-12T18:48:45.092Z,70.09
2022-09-12T18:51:14.762Z,70.24
2022-09-12T18:53:43.058Z,70.04
2022-09-12T18:56:14.282Z,70.41
2022-09-12T18:58:42.811Z,70.42
2022-09-12T19:01:13.923Z,70.53
2022-09-12T19:03:40.846Z,70.32
2022-09-12T19:06:17.733Z,70.32
2022-09-12T19:08:45.286Z,70.13
2022-09-12T19:11:12.431Z,70.50
2022-09-12T19:13:43.035Z,70.41
2022-09-12T19:16:13.397Z,70.67
2022-09-12T19:18:40.670Z,70.64
2022-09-12T19:21:11.011Z,70.47
2022-09-12T19:23:37.698Z,70.15
2022-09-12T19:26:07.855Z,70.15
2022-09-12T19:28:35.139Z,69.98
2022-09-12T19:31:11.060Z,69.31
2022-09-12T19:33:38.743Z,69.34
2022-09-12T19:36:21.969Z,69.18
2022-09-12T19:38:55.154Z,68.98
2022-09-12T19:41:21.790Z,69.30
2022-09-12T19:43:48.401Z,68.72
2022-09-12T19:46:22.867Z,69.04
2022-09-12T19:48:50.454Z,68.88
2022-09-12T19:51:17.872Z,68.84
2022-09-12T19:53:45.276Z,68.56
2022-09-12T19:56:13.435Z,68.58
2022-09-12T19:58:45.586Z,68.64
2022-09-12T20:01:18.347Z,68.63
2022-09-12T20:03:45.930Z,68.68
2022-09-12T20:06:14.891Z,68.75
2022-09-12T20:08:45.027Z,68.79
2022-09-12T20:11:17.995Z,68.72
2022-09-12T20:13:46.008Z,68.31
2022-09-12T20:16:21.690Z,68.75
2022-09-12T20:18:54.047Z,69.28
2022-09-12T20:21:24.948Z,69.52
2022-09-12T20:23:52.102Z,70.24
2022-09-12T20:26:20.523Z,70.57
2022-09-12T20:28:47.841Z,71.13
2022-09-12T20:31:18.677Z,71.58
2022-09-12T20:33:49.839Z,72.10
2022-09-12T20:36:20.232Z,72.91
2022-09-12T20:38:58.164Z,73.75
2022-09-12T20:41:27.269Z,74.38
2022-09-12T20:43:55.719Z,74.93
2022-09-12T20:46:24.197Z,76.09
2022-09-12T20:48:52.081Z,77.02
2022-09-12T20:51:20.231Z,77.40
2022-09-12T20:53:50.558Z,78.08
2022-09-12T20:56:18.191Z,78.83
2022-09-12T20:58:44.994Z,79.21
2022-09-12T21:01:13.882Z,78.94
2022-09-12T21:03:42.228Z,79.65
2022-09-12T21:06:10.237Z,79.70
2022-09-12T21:08:37.622Z,80.48
2022-09-12T21:11:05.622Z,80.75
2022-09-12T21:13:32.373Z,81.70
2022-09-12T21:16:07.417Z,82.53
2022-09-12T21:18:35.399Z,82.79
2022-09-12T21:21:02.848Z,83.71
2022-09-12T21:23:30.171Z,84.85
2022-09-12T21:25:58.631Z,85.04
2022-09-12T21:28:25.272Z,86.14
2022-09-12T21:30:52.335Z,86.35
2022-09-12T21:33:20.778Z,87.57
2022-09-12T21:35:48.204Z,87.25
2022-09-12T21:38:16.008Z,87.92
2022-09-12T21:40:43.163Z,87.44
2022-09-12T21:43:12.786Z,87.87
2022-09-12T21:45:41.081Z,87.81
2022-09-12T21:48:08.107Z,88.21
2022-09-12T21:50:39.438Z,88.66
2022-09-12T21:53:06.000Z,89.40
2022-09-12T21:55:33.589Z,90.18
2022-09-12T21:58:00.285Z,91.53
2022-09-12T22:00:26.899Z,93.31
2022-09-12T22:02:53.893Z,95.63
2022-09-12T22:05:21.352Z,97.31
2022-09-12T22:07:47.953Z,97.31
2022-09-12T22:10:15.353Z,97.76
2022-09-12T22:12:46.064Z,98.13
2022-09-12T22:15:38.915Z,98.45
2022-09-12T22:18:00.691Z,98.97
2022-09-12T22:20:27.429Z,99.42
2022-09-12T22:23:12.632Z,99.99
2022-09-12T22:25:39.730Z,100.00
2022-09-12T22:28:06.358Z,100.00
2022-09-12T22:30:33.114Z,100.00
2022-09-12T22:32:59.869Z,100.00
2022-09-12T22:35:26.395Z,100.00
2022-09-12T22:37:53.099Z,100.00
2022-09-12T22:40:19.999Z,100.00
2022-09-12T22:42:46.618Z,100.00
2022-09-12T22:45:13.336Z,100.00
2022-09-12T22:47:39.954Z,100.00
2022-09-12T22:50:07.240Z,100.00
2022-09-12T22:52:33.958Z,100.00
2022-09-12T22:55:00.573Z,100.00
2022-09-12T22:57:27.236Z,100.00
2022-09-12T22:59:54.225Z,100.00
2022-09-12T23:02:39.231Z,100.00
2022-09-12T23:05:06.367Z,100.00
2022-09-12T23:07:33.594Z,100.00
2022-09-12T23:10:00.318Z,100.00
2022-09-12T23:12:27.287Z,100.00
2022-09-12T23:14:53.901Z,100.00
2022-09-12T23:17:20.616Z,100.00
2022-09-12T23:19:47.289Z,100.00
2022-09-12T23:22:14.556Z,100.00
2022-09-12T23:24:41.166Z,100.00
2022-09-12T23:27:07.861Z,100.00
2022-09-12T23:29:35.682Z,100.00
2022-09-12T23:32:04.155Z,100.00
2022-09-12T23:34:31.039Z,100.00
2022-09-12T23:36:57.651Z,100.00
2022-09-12T23:39:24.377Z,100.00
2022-09-12T23:41:52.072Z,100.00
2022-09-12T23:44:19.038Z,100.00
2022-09-12T23:46:45.838Z,100.00
2022-09-12T23:49:12.653Z,100.00
2022-09-12T23:51:39.738Z,100.00
2022-09-12T23:54:06.521Z,100.00
2022-09-12T23:56:33.114Z,100.00
2022-09-12T23:58:59.675Z,100.00
